sensor_id;sensor_type;location;lat;lon;timestamp;P1;durP1;ratioP1;P2;durP2;ratioP2
82034;SDS011;71599;49.892;18.914;2023-08-20T00:02:41;16.92;;;13.73;;
82034;SDS011;71599;49.892;18.914;2023-08-20T00:07:44;17.65;;;15.77;;
82034;SDS011;71599;49.892;18.914;2023-08-20T00:12:45;18.77;;;14.73;;
82034;SDS011;71599;49.892;18.914;2023-08-20T00:17:46;19.58;;;16.08;;
82034;SDS011;71599;49.892;18.914;2023-08-20T00:22:49;19.08;;;16.45;;
82034;SDS011;71599;49.892;18.914;2023-08-20T00:27:51;17.23;;;14.90;;
82034;SDS011;71599;49.892;18.914;2023-08-20T00:32:51;25.10;;;17.98;;
82034;SDS011;71599;49.892;18.914;2023-08-20T00:37:54;20.63;;;16.75;;
82034;SDS011;71599;49.892;18.914;2023-08-20T00:42:55;17.95;;;15.65;;
82034;SDS011;71599;49.892;18.914;2023-08-20T00:47:56;16.30;;;14.13;;
82034;SDS011;71599;49.892;18.914;2023-08-20T00:52:58;14.20;;;12.32;;
82034;SDS011;71599;49.892;18.914;2023-08-20T00:57:59;16.02;;;13.95;;
82034;SDS011;71599;49.892;18.914;2023-08-20T01:03:01;14.48;;;12.32;;
82034;SDS011;71599;49.892;18.914;2023-08-20T01:08:10;12.48;;;10.75;;
82034;SDS011;71599;49.892;18.914;2023-08-20T01:13:22;12.57;;;11.25;;
82034;SDS011;71599;49.892;18.914;2023-08-20T01:18:23;13.57;;;11.43;;
82034;SDS011;71599;49.892;18.914;2023-08-20T01:23:35;13.32;;;11.98;;
82034;SDS011;71599;49.892;18.914;2023-08-20T01:28:52;14.20;;;11.52;;
82034;SDS011;71599;49.892;18.914;2023-08-20T01:33:54;13.65;;;12.25;;
82034;SDS011;71599;49.892;18.914;2023-08-20T01:38:55;12.35;;;10.77;;
82034;SDS011;71599;49.892;18.914;2023-08-20T01:43:58;13.18;;;11.48;;
82034;SDS011;71599;49.892;18.914;2023-08-20T01:48:59;13.25;;;11.95;;
82034;SDS011;71599;49.892;18.914;2023-08-20T01:54:00;15.77;;;12.45;;
82034;SDS011;71599;49.892;18.914;2023-08-20T01:59:02;12.40;;;11.18;;
82034;SDS011;71599;49.892;18.914;2023-08-20T02:04:04;13.52;;;12.15;;
82034;SDS011;71599;49.892;18.914;2023-08-20T02:09:05;12.80;;;11.50;;
82034;SDS011;71599;49.892;18.914;2023-08-20T02:14:07;13.52;;;12.02;;
82034;SDS011;71599;49.892;18.914;2023-08-20T02:19:08;12.90;;;11.15;;
82034;SDS011;71599;49.892;18.914;2023-08-20T02:24:09;13.60;;;12.18;;
82034;SDS011;71599;49.892;18.914;2023-08-20T02:29:11;12.98;;;11.18;;
82034;SDS011;71599;49.892;18.914;2023-08-20T02:34:12;10.27;;;9.18;;
82034;SDS011;71599;49.892;18.914;2023-08-20T02:39:13;9.82;;;8.93;;
82034;SDS011;71599;49.892;18.914;2023-08-20T02:44:16;11.65;;;9.63;;
82034;SDS011;71599;49.892;18.914;2023-08-20T02:49:17;11.07;;;9.77;;
82034;SDS011;71599;49.892;18.914;2023-08-20T02:54:18;11.32;;;10.23;;
82034;SDS011;71599;49.892;18.914;2023-08-20T02:59:20;11.98;;;10.85;;
82034;SDS011;71599;49.892;18.914;2023-08-20T03:04:21;12.23;;;10.95;;
82034;SDS011;71599;49.892;18.914;2023-08-20T03:09:22;16.05;;;11.70;;
82034;SDS011;71599;49.892;18.914;2023-08-20T03:14:24;16.13;;;13.30;;
82034;SDS011;71599;49.892;18.914;2023-08-20T03:19:25;15.57;;;13.25;;
82034;SDS011;71599;49.892;18.914;2023-08-20T03:24:26;13.88;;;12.52;;
82034;SDS011;71599;49.892;18.914;2023-08-20T03:29:28;19.55;;;15.93;;
82034;SDS011;71599;49.892;18.914;2023-08-20T03:34:29;14.82;;;13.15;;
82034;SDS011;71599;49.892;18.914;2023-08-20T03:39:30;15.13;;;12.50;;
82034;SDS011;71599;49.892;18.914;2023-08-20T03:44:33;12.45;;;11.13;;
82034;SDS011;71599;49.892;18.914;2023-08-20T03:49:34;13.43;;;11.65;;
82034;SDS011;71599;49.892;18.914;2023-08-20T03:54:35;11.60;;;10.32;;
82034;SDS011;71599;49.892;18.914;2023-08-20T03:59:37;11.98;;;10.82;;
82034;SDS011;71599;49.892;18.914;2023-08-20T04:04:38;11.55;;;10.35;;
82034;SDS011;71599;49.892;18.914;2023-08-20T04:09:39;14.98;;;13.48;;
82034;SDS011;71599;49.892;18.914;2023-08-20T04:14:41;12.18;;;10.73;;
82034;SDS011;71599;49.892;18.914;2023-08-20T04:19:42;11.95;;;10.75;;
82034;SDS011;71599;49.892;18.914;2023-08-20T04:24:43;11.38;;;10.27;;
82034;SDS011;71599;49.892;18.914;2023-08-20T04:29:45;12.25;;;10.55;;
82034;SDS011;71599;49.892;18.914;2023-08-20T04:34:46;13.75;;;11.82;;
82034;SDS011;71599;49.892;18.914;2023-08-20T04:39:47;15.32;;;11.23;;
82034;SDS011;71599;49.892;18.914;2023-08-20T04:44:50;12.95;;;11.65;;
82034;SDS011;71599;49.892;18.914;2023-08-20T04:49:51;17.50;;;14.35;;
82034;SDS011;71599;49.892;18.914;2023-08-20T04:54:52;18.05;;;13.93;;
82034;SDS011;71599;49.892;18.914;2023-08-20T04:59:54;15.73;;;14.07;;
82034;SDS011;71599;49.892;18.914;2023-08-20T05:04:55;14.68;;;13.13;;
82034;SDS011;71599;49.892;18.914;2023-08-20T05:09:56;14.48;;;13.07;;
82034;SDS011;71599;49.892;18.914;2023-08-20T05:14:58;14.88;;;13.38;;
82034;SDS011;71599;49.892;18.914;2023-08-20T05:19:59;13.77;;;12.23;;
82034;SDS011;71599;49.892;18.914;2023-08-20T05:25:01;13.93;;;12.52;;
82034;SDS011;71599;49.892;18.914;2023-08-20T05:30:03;14.52;;;13.02;;
82034;SDS011;71599;49.892;18.914;2023-08-20T05:35:05;12.35;;;11.23;;
82034;SDS011;71599;49.892;18.914;2023-08-20T05:40:07;13.48;;;12.00;;
82034;SDS011;71599;49.892;18.914;2023-08-20T05:45:10;13.82;;;12.38;;
82034;SDS011;71599;49.892;18.914;2023-08-20T05:50:11;12.43;;;11.20;;
82034;SDS011;71599;49.892;18.914;2023-08-20T05:55:12;12.48;;;11.27;;
82034;SDS011;71599;49.892;18.914;2023-08-20T06:00:15;12.13;;;11.02;;
82034;SDS011;71599;49.892;18.914;2023-08-20T06:05:16;12.50;;;11.18;;
82034;SDS011;71599;49.892;18.914;2023-08-20T06:10:17;17.30;;;11.20;;
82034;SDS011;71599;49.892;18.914;2023-08-20T06:15:19;12.55;;;11.35;;
82034;SDS011;71599;49.892;18.914;2023-08-20T06:20:20;10.73;;;9.77;;
82034;SDS011;71599;49.892;18.914;2023-08-20T06:25:21;12.05;;;10.95;;
82034;SDS011;71599;49.892;18.914;2023-08-20T06:30:23;10.55;;;9.70;;
82034;SDS011;71599;49.892;18.914;2023-08-20T06:35:24;10.63;;;9.73;;
82034;SDS011;71599;49.892;18.914;2023-08-20T06:40:25;10.65;;;9.75;;
82034;SDS011;71599;49.892;18.914;2023-08-20T06:45:28;10.07;;;8.93;;
82034;SDS011;71599;49.892;18.914;2023-08-20T06:50:29;10.90;;;9.85;;
82034;SDS011;71599;49.892;18.914;2023-08-20T06:55:30;11.02;;;9.93;;
82034;SDS011;71599;49.892;18.914;2023-08-20T07:00:32;11.57;;;10.63;;
82034;SDS011;71599;49.892;18.914;2023-08-20T07:05:33;11.18;;;10.27;;
82034;SDS011;71599;49.892;18.914;2023-08-20T07:10:34;12.07;;;11.00;;
82034;SDS011;71599;49.892;18.914;2023-08-20T07:15:36;11.90;;;10.85;;
82034;SDS011;71599;49.892;18.914;2023-08-20T07:20:37;10.80;;;9.90;;
82034;SDS011;71599;49.892;18.914;2023-08-20T07:25:39;10.65;;;9.65;;
82034;SDS011;71599;49.892;18.914;2023-08-20T07:30:42;10.90;;;9.43;;
82034;SDS011;71599;49.892;18.914;2023-08-20T07:35:43;10.40;;;9.50;;
82034;SDS011;71599;49.892;18.914;2023-08-20T07:40:44;11.02;;;10.23;;
82034;SDS011;71599;49.892;18.914;2023-08-20T07:45:47;10.85;;;10.05;;
82034;SDS011;71599;49.892;18.914;2023-08-20T07:50:48;10.05;;;9.20;;
82034;SDS011;71599;49.892;18.914;2023-08-20T07:55:49;10.00;;;9.13;;
82034;SDS011;71599;49.892;18.914;2023-08-20T08:00:51;10.38;;;9.60;;
82034;SDS011;71599;49.892;18.914;2023-08-20T08:05:52;10.20;;;8.93;;
82034;SDS011;71599;49.892;18.914;2023-08-20T08:10:53;9.98;;;9.07;;
82034;SDS011;71599;49.892;18.914;2023-08-20T08:15:56;13.70;;;9.77;;
82034;SDS011;71599;49.892;18.914;2023-08-20T08:20:57;10.15;;;9.35;;
82034;SDS011;71599;49.892;18.914;2023-08-20T08:25:57;10.18;;;9.38;;
82034;SDS011;71599;49.892;18.914;2023-08-20T08:31:00;9.73;;;8.93;;
82034;SDS011;71599;49.892;18.914;2023-08-20T08:36:01;9.63;;;8.82;;
82034;SDS011;71599;49.892;18.914;2023-08-20T08:41:02;10.00;;;9.20;;
82034;SDS011;71599;49.892;18.914;2023-08-20T08:46:06;10.27;;;9.27;;
82034;SDS011;71599;49.892;18.914;2023-08-20T08:51:08;9.88;;;8.90;;
82034;SDS011;71599;49.892;18.914;2023-08-20T08:56:09;9.75;;;8.93;;
82034;SDS011;71599;49.892;18.914;2023-08-20T09:01:11;8.55;;;7.75;;
82034;SDS011;71599;49.892;18.914;2023-08-20T09:06:13;9.55;;;8.65;;
82034;SDS011;71599;49.892;18.914;2023-08-20T09:11:14;9.52;;;8.77;;
82034;SDS011;71599;49.892;18.914;2023-08-20T09:16:19;10.38;;;9.48;;
82034;SDS011;71599;49.892;18.914;2023-08-20T09:21:20;9.73;;;8.82;;
82034;SDS011;71599;49.892;18.914;2023-08-20T09:26:27;9.27;;;8.57;;
82034;SDS011;71599;49.892;18.914;2023-08-20T09:31:37;9.50;;;8.80;;
82034;SDS011;71599;49.892;18.914;2023-08-20T09:36:39;9.90;;;9.00;;
82034;SDS011;71599;49.892;18.914;2023-08-20T09:41:40;9.90;;;8.93;;
82034;SDS011;71599;49.892;18.914;2023-08-20T09:46:43;9.05;;;8.27;;
82034;SDS011;71599;49.892;18.914;2023-08-20T09:51:45;9.98;;;9.15;;
82034;SDS011;71599;49.892;18.914;2023-08-20T09:56:50;10.25;;;9.35;;
82034;SDS011;71599;49.892;18.914;2023-08-20T10:01:55;9.40;;;8.60;;
82034;SDS011;71599;49.892;18.914;2023-08-20T10:06:57;9.57;;;8.73;;
82034;SDS011;71599;49.892;18.914;2023-08-20T10:12:00;8.73;;;8.00;;
82034;SDS011;71599;49.892;18.914;2023-08-20T10:17:10;10.70;;;9.50;;
82034;SDS011;71599;49.892;18.914;2023-08-20T10:22:12;7.60;;;6.80;;
82034;SDS011;71599;49.892;18.914;2023-08-20T10:27:23;8.70;;;8.02;;
82034;SDS011;71599;49.892;18.914;2023-08-20T10:38:04;7.85;;;6.65;;
82034;SDS011;71599;49.892;18.914;2023-08-20T10:43:07;7.88;;;7.07;;
82034;SDS011;71599;49.892;18.914;2023-08-20T10:48:10;6.78;;;6.18;;
82034;SDS011;71599;49.892;18.914;2023-08-20T10:53:12;7.18;;;5.90;;
82034;SDS011;71599;49.892;18.914;2023-08-20T10:58:13;7.82;;;7.00;;
82034;SDS011;71599;49.892;18.914;2023-08-20T11:03:16;7.93;;;7.22;;
82034;SDS011;71599;49.892;18.914;2023-08-20T11:08:19;8.07;;;7.47;;
82034;SDS011;71599;49.892;18.914;2023-08-20T11:13:20;8.25;;;7.50;;
82034;SDS011;71599;49.892;18.914;2023-08-20T11:18:23;8.55;;;7.78;;
82034;SDS011;71599;49.892;18.914;2023-08-20T11:23:25;7.38;;;6.80;;
82034;SDS011;71599;49.892;18.914;2023-08-20T11:28:26;8.55;;;7.65;;
82034;SDS011;71599;49.892;18.914;2023-08-20T11:33:29;8.65;;;7.95;;
82034;SDS011;71599;49.892;18.914;2023-08-20T11:38:30;7.85;;;7.05;;
82034;SDS011;71599;49.892;18.914;2023-08-20T11:43:31;7.88;;;7.18;;
82034;SDS011;71599;49.892;18.914;2023-08-20T11:48:34;7.35;;;6.75;;
82034;SDS011;71599;49.892;18.914;2023-08-20T11:53:35;8.65;;;7.85;;
82034;SDS011;71599;49.892;18.914;2023-08-20T11:58:36;7.25;;;6.63;;
82034;SDS011;71599;49.892;18.914;2023-08-20T12:03:38;7.25;;;6.63;;
82034;SDS011;71599;49.892;18.914;2023-08-20T12:08:39;7.65;;;6.80;;
82034;SDS011;71599;49.892;18.914;2023-08-20T12:13:40;7.63;;;6.82;;
82034;SDS011;71599;49.892;18.914;2023-08-20T12:18:43;8.75;;;7.85;;
82034;SDS011;71599;49.892;18.914;2023-08-20T12:23:46;8.00;;;7.30;;
82034;SDS011;71599;49.892;18.914;2023-08-20T12:28:47;6.82;;;6.32;;
82034;SDS011;71599;49.892;18.914;2023-08-20T12:33:50;7.43;;;6.72;;
82034;SDS011;71599;49.892;18.914;2023-08-20T12:38:51;7.45;;;6.85;;
82034;SDS011;71599;49.892;18.914;2023-08-20T12:43:52;8.88;;;8.07;;
82034;SDS011;71599;49.892;18.914;2023-08-20T12:48:54;8.57;;;7.88;;
82034;SDS011;71599;49.892;18.914;2023-08-20T12:53:55;7.45;;;6.72;;
82034;SDS011;71599;49.892;18.914;2023-08-20T12:58:56;9.73;;;7.55;;
82034;SDS011;71599;49.892;18.914;2023-08-20T13:03:58;7.63;;;6.85;;
82034;SDS011;71599;49.892;18.914;2023-08-20T13:09:00;6.20;;;5.65;;
82034;SDS011;71599;49.892;18.914;2023-08-20T13:14:01;7.05;;;6.38;;
82034;SDS011;71599;49.892;18.914;2023-08-20T13:19:05;6.72;;;6.13;;
82034;SDS011;71599;49.892;18.914;2023-08-20T13:24:07;6.25;;;5.68;;
82034;SDS011;71599;49.892;18.914;2023-08-20T13:29:08;7.20;;;6.60;;
82034;SDS011;71599;49.892;18.914;2023-08-20T13:34:11;6.28;;;5.68;;
82034;SDS011;71599;49.892;18.914;2023-08-20T13:39:12;6.00;;;5.50;;
82034;SDS011;71599;49.892;18.914;2023-08-20T13:44:14;6.47;;;5.93;;
82034;SDS011;71599;49.892;18.914;2023-08-20T13:49:18;6.70;;;5.85;;
82034;SDS011;71599;49.892;18.914;2023-08-20T13:54:19;6.22;;;5.55;;
82034;SDS011;71599;49.892;18.914;2023-08-20T13:59:20;6.53;;;5.85;;
82034;SDS011;71599;49.892;18.914;2023-08-20T14:04:23;6.95;;;6.35;;
82034;SDS011;71599;49.892;18.914;2023-08-20T14:09:24;8.70;;;6.85;;
82034;SDS011;71599;49.892;18.914;2023-08-20T14:14:25;6.35;;;5.75;;
82034;SDS011;71599;49.892;18.914;2023-08-20T14:19:28;7.68;;;6.90;;
82034;SDS011;71599;49.892;18.914;2023-08-20T14:24:29;6.30;;;5.85;;
82034;SDS011;71599;49.892;18.914;2023-08-20T14:29:30;6.97;;;6.38;;
82034;SDS011;71599;49.892;18.914;2023-08-20T14:34:32;7.82;;;7.13;;
82034;SDS011;71599;49.892;18.914;2023-08-20T14:39:33;7.78;;;6.95;;
82034;SDS011;71599;49.892;18.914;2023-08-20T14:44:34;7.88;;;7.18;;
82034;SDS011;71599;49.892;18.914;2023-08-20T14:49:37;7.88;;;7.13;;
82034;SDS011;71599;49.892;18.914;2023-08-20T14:54:38;8.07;;;7.47;;
82034;SDS011;71599;49.892;18.914;2023-08-20T14:59:39;7.72;;;7.00;;
82034;SDS011;71599;49.892;18.914;2023-08-20T15:04:41;7.90;;;7.20;;
82034;SDS011;71599;49.892;18.914;2023-08-20T15:09:42;8.18;;;7.38;;
82034;SDS011;71599;49.892;18.914;2023-08-20T15:14:43;7.57;;;6.97;;
82034;SDS011;71599;49.892;18.914;2023-08-20T15:19:46;7.70;;;7.00;;
82034;SDS011;71599;49.892;18.914;2023-08-20T15:24:47;7.72;;;7.03;;
82034;SDS011;71599;49.892;18.914;2023-08-20T15:29:49;8.95;;;8.13;;
82034;SDS011;71599;49.892;18.914;2023-08-20T15:34:52;7.55;;;6.85;;
82034;SDS011;71599;49.892;18.914;2023-08-20T15:39:53;6.38;;;5.80;;
82034;SDS011;71599;49.892;18.914;2023-08-20T15:44:55;6.68;;;5.90;;
82034;SDS011;71599;49.892;18.914;2023-08-20T15:49:57;7.00;;;6.30;;
82034;SDS011;71599;49.892;18.914;2023-08-20T15:54:58;6.07;;;5.55;;
82034;SDS011;71599;49.892;18.914;2023-08-20T15:59:59;6.20;;;5.70;;
82034;SDS011;71599;49.892;18.914;2023-08-20T16:05:01;6.53;;;5.82;;
82034;SDS011;71599;49.892;18.914;2023-08-20T16:10:02;5.95;;;5.50;;
82034;SDS011;71599;49.892;18.914;2023-08-20T16:15:04;5.63;;;5.13;;
82034;SDS011;71599;49.892;18.914;2023-08-20T16:20:08;6.22;;;5.72;;
82034;SDS011;71599;49.892;18.914;2023-08-20T16:25:09;5.70;;;5.20;;
82034;SDS011;71599;49.892;18.914;2023-08-20T16:30:10;5.47;;;4.97;;
82034;SDS011;71599;49.892;18.914;2023-08-20T16:35:13;6.38;;;5.03;;
82034;SDS011;71599;49.892;18.914;2023-08-20T16:40:20;6.30;;;4.85;;
82034;SDS011;71599;49.892;18.914;2023-08-20T16:45:22;6.20;;;5.18;;
82034;SDS011;71599;49.892;18.914;2023-08-20T16:50:24;6.60;;;5.10;;
82034;SDS011;71599;49.892;18.914;2023-08-20T16:55:25;5.53;;;5.03;;
82034;SDS011;71599;49.892;18.914;2023-08-20T17:00:26;5.90;;;5.30;;
82034;SDS011;71599;49.892;18.914;2023-08-20T17:05:29;6.97;;;5.65;;
82034;SDS011;71599;49.892;18.914;2023-08-20T17:10:30;6.57;;;5.97;;
82034;SDS011;71599;49.892;18.914;2023-08-20T17:15:31;6.90;;;6.25;;
82034;SDS011;71599;49.892;18.914;2023-08-20T17:20:35;7.53;;;6.03;;
82034;SDS011;71599;49.892;18.914;2023-08-20T17:25:36;8.20;;;5.68;;
82034;SDS011;71599;49.892;18.914;2023-08-20T17:30:37;5.97;;;5.40;;
82034;SDS011;71599;49.892;18.914;2023-08-20T17:35:40;6.82;;;5.85;;
82034;SDS011;71599;49.892;18.914;2023-08-20T17:40:41;7.03;;;6.32;;
82034;SDS011;71599;49.892;18.914;2023-08-20T17:45:42;7.05;;;5.43;;
82034;SDS011;71599;49.892;18.914;2023-08-20T17:50:44;6.68;;;6.07;;
82034;SDS011;71599;49.892;18.914;2023-08-20T17:55:46;6.72;;;6.13;;
82034;SDS011;71599;49.892;18.914;2023-08-20T18:00:47;6.68;;;5.90;;
82034;SDS011;71599;49.892;18.914;2023-08-20T18:05:50;7.20;;;6.60;;
82034;SDS011;71599;49.892;18.914;2023-08-20T18:10:51;6.15;;;5.53;;
82034;SDS011;71599;49.892;18.914;2023-08-20T18:15:52;7.25;;;6.55;;
82034;SDS011;71599;49.892;18.914;2023-08-20T18:20:54;7.57;;;6.07;;
82034;SDS011;71599;49.892;18.914;2023-08-20T18:25:56;6.50;;;5.90;;
82034;SDS011;71599;49.892;18.914;2023-08-20T18:30:58;6.32;;;5.72;;
82034;SDS011;71599;49.892;18.914;2023-08-20T18:36:02;7.18;;;6.50;;
82034;SDS011;71599;49.892;18.914;2023-08-20T18:41:04;7.80;;;6.07;;
82034;SDS011;71599;49.892;18.914;2023-08-20T18:46:05;7.80;;;6.55;;
82034;SDS011;71599;49.892;18.914;2023-08-20T18:51:08;6.93;;;6.22;;
82034;SDS011;71599;49.892;18.914;2023-08-20T18:56:09;7.97;;;6.93;;
82034;SDS011;71599;49.892;18.914;2023-08-20T19:01:10;8.18;;;7.35;;
82034;SDS011;71599;49.892;18.914;2023-08-20T19:06:14;8.30;;;7.50;;
82034;SDS011;71599;49.892;18.914;2023-08-20T19:11:15;8.00;;;7.20;;
82034;SDS011;71599;49.892;18.914;2023-08-20T19:16:16;9.55;;;7.47;;
82034;SDS011;71599;49.892;18.914;2023-08-20T19:21:18;9.93;;;8.32;;
82034;SDS011;71599;49.892;18.914;2023-08-20T19:26:20;10.20;;;8.38;;
82034;SDS011;71599;49.892;18.914;2023-08-20T19:31:21;8.27;;;7.45;;
82034;SDS011;71599;49.892;18.914;2023-08-20T19:36:24;9.10;;;8.30;;
82034;SDS011;71599;49.892;18.914;2023-08-20T19:41:25;8.10;;;7.30;;
82034;SDS011;71599;49.892;18.914;2023-08-20T19:46:26;9.45;;;8.50;;
82034;SDS011;71599;49.892;18.914;2023-08-20T19:51:28;10.93;;;9.25;;
82034;SDS011;71599;49.892;18.914;2023-08-20T19:56:29;13.18;;;9.82;;
82034;SDS011;71599;49.892;18.914;2023-08-20T20:01:30;9.52;;;8.48;;
82034;SDS011;71599;49.892;18.914;2023-08-20T20:06:32;8.88;;;7.97;;
82034;SDS011;71599;49.892;18.914;2023-08-20T20:11:33;9.85;;;8.85;;
82034;SDS011;71599;49.892;18.914;2023-08-20T20:16:34;10.13;;;9.00;;
82034;SDS011;71599;49.892;18.914;2023-08-20T20:21:37;10.18;;;9.00;;
82034;SDS011;71599;49.892;18.914;2023-08-20T20:26:38;10.30;;;9.20;;
82034;SDS011;71599;49.892;18.914;2023-08-20T20:31:39;10.95;;;9.88;;
82034;SDS011;71599;49.892;18.914;2023-08-20T20:36:41;10.65;;;9.55;;
82034;SDS011;71599;49.892;18.914;2023-08-20T20:41:42;11.55;;;10.45;;
82034;SDS011;71599;49.892;18.914;2023-08-20T20:46:43;11.50;;;10.30;;
82034;SDS011;71599;49.892;18.914;2023-08-20T20:51:46;13.23;;;10.38;;
82034;SDS011;71599;49.892;18.914;2023-08-20T20:56:47;16.08;;;10.30;;
82034;SDS011;71599;49.892;18.914;2023-08-20T21:01:54;11.52;;;10.38;;
82034;SDS011;71599;49.892;18.914;2023-08-20T21:06:55;10.63;;;9.50;;
82034;SDS011;71599;49.892;18.914;2023-08-20T21:11:56;12.60;;;10.48;;
82034;SDS011;71599;49.892;18.914;2023-08-20T21:16:59;13.50;;;11.98;;
82034;SDS011;71599;49.892;18.914;2023-08-20T21:22:04;11.57;;;10.32;;
82034;SDS011;71599;49.892;18.914;2023-08-20T21:27:10;13.07;;;11.35;;
82034;SDS011;71599;49.892;18.914;2023-08-20T21:32:13;13.38;;;11.52;;
82034;SDS011;71599;49.892;18.914;2023-08-20T21:37:14;13.05;;;11.77;;
82034;SDS011;71599;49.892;18.914;2023-08-20T21:42:15;14.73;;;11.98;;
82034;SDS011;71599;49.892;18.914;2023-08-20T21:47:20;12.32;;;10.85;;
82034;SDS011;71599;49.892;18.914;2023-08-20T21:52:23;11.52;;;10.45;;
82034;SDS011;71599;49.892;18.914;2023-08-20T21:57:24;12.90;;;11.52;;
82034;SDS011;71599;49.892;18.914;2023-08-20T22:02:27;14.52;;;13.02;;
82034;SDS011;71599;49.892;18.914;2023-08-20T22:07:28;16.77;;;11.43;;
82034;SDS011;71599;49.892;18.914;2023-08-20T22:12:29;16.10;;;12.63;;
82034;SDS011;71599;49.892;18.914;2023-08-20T22:17:31;14.65;;;12.13;;
82034;SDS011;71599;49.892;18.914;2023-08-20T22:22:32;13.45;;;12.05;;
82034;SDS011;71599;49.892;18.914;2023-08-20T22:27:33;14.25;;;12.80;;
82034;SDS011;71599;49.892;18.914;2023-08-20T22:32:36;12.73;;;11.43;;
82034;SDS011;71599;49.892;18.914;2023-08-20T22:37:37;12.93;;;11.57;;
82034;SDS011;71599;49.892;18.914;2023-08-20T22:42:38;11.38;;;10.20;;
82034;SDS011;71599;49.892;18.914;2023-08-20T22:47:40;13.13;;;11.20;;
82034;SDS011;71599;49.892;18.914;2023-08-20T22:52:41;14.85;;;11.80;;
82034;SDS011;71599;49.892;18.914;2023-08-20T22:57:42;12.60;;;10.98;;
82034;SDS011;71599;49.892;18.914;2023-08-20T23:02:44;12.98;;;10.25;;
82034;SDS011;71599;49.892;18.914;2023-08-20T23:07:45;10.98;;;9.82;;
82034;SDS011;71599;49.892;18.914;2023-08-20T23:12:47;11.40;;;10.23;;
82034;SDS011;71599;49.892;18.914;2023-08-20T23:17:49;11.93;;;10.65;;
82034;SDS011;71599;49.892;18.914;2023-08-20T23:22:51;12.68;;;10.00;;
82034;SDS011;71599;49.892;18.914;2023-08-20T23:27:52;11.32;;;10.13;;
82034;SDS011;71599;49.892;18.914;2023-08-20T23:32:54;9.80;;;8.90;;
82034;SDS011;71599;49.892;18.914;2023-08-20T23:37:55;11.93;;;10.73;;
82034;SDS011;71599;49.892;18.914;2023-08-20T23:42:56;11.82;;;10.55;;
82034;SDS011;71599;49.892;18.914;2023-08-20T23:47:59;10.85;;;9.70;;
82034;SDS011;71599;49.892;18.914;2023-08-20T23:53:00;12.68;;;10.68;;
82034;SDS011;71599;49.892;18.914;2023-08-20T23:58:00;13.13;;;11.00;;
